Prinsendam — PBGH — position and weather

sailwx.info

Track history (hours):
 
Tides and Currents Weather Stations Pressure Air Temp Water Temp Dewpoint Dewpoint Depression Visibility Wind Speed Wind Dir Waves Ship Positions

Prinsendam

Operator: Holland America Line

Last reported at 2018-Sep-19 03:30 UTC. Time now 2018-Sep-19 03:53 UTC.
Position N 49°30' W 000°10'.

Type: Ship. MMSI: 244126000.

Date/timePositionNaut miles runAvg speedWind from/ knotsBaromVisibWave heightAir tempDewpointWater temp
2018-Sep-19 03:30N 49°30' W 000°10'817.6
2018-Sep-19 03:03N 49°38' W 000°12'118.7
2018-Sep-19 03:00N 49°39' W 000°11'815.9
2018-Sep-19 02:30N 49°47' W 000°11'716.6
2018-Sep-19 02:03N 49°54' W 000°10'118.7
2018-Sep-19 02:01N 49°55' W 000°10'1019.5
2018-Sep-19 01:30N 50°05' W 000°09'919.4
2018-Sep-19 01:03N 50°14' W 000°07'119.5
2018-Sep-19 01:00N 50°15' W 000°06'1318.7
2018-Sep-19 00:19N 50°28' W 000°05'519.3
2018-Sep-19 00:03N 50°29' E 000°03'119.5
2018-Sep-18 23:59N 50°30' E 000°05'919.6
2018-Sep-18 23:31N 50°33' E 000°19'919.8
2018-Sep-18 23:03N 50°35' E 000°32'119.8
2018-Sep-18 23:00N 50°35' E 000°34'1019.5
2018-Sep-18 22:30N 50°41' E 000°46'919.7
2018-Sep-18 22:03N 50°46' E 000°57'119.5
2018-Sep-18 22:01N 50°47' E 000°58'6345.7
2018-Sep-18 22:00N 50°42' E 000°54'1531.5 210 / 171012.310.8 18.518.520.0
2018-Sep-18 21:30N 50°54' E 001°09'919.1
2018-Sep-18 21:03N 50°60' E 001°19'118.7
2018-Sep-18 21:01N 51°00' E 001°20'918.2
2018-Sep-18 20:31N 51°06' E 001°32'817.7
2018-Sep-18 20:04N 51°10' E 001°42'117.8
2018-Sep-18 20:01N 51°11' E 001°43'918.0
2018-Sep-18 19:31N 51°18' E 001°52'817.9
2018-Sep-18 19:03N 51°25' E 001°59'117.8
2018-Sep-18 19:01N 51°25' E 002°01'918.3
2018-Sep-18 18:30N 51°21' E 002°14'817.6
2018-Sep-18 18:01N 51°22' E 002°27'116.6
2018-Sep-18 18:00N 51°22' E 002°28'917.1
2018-Sep-18 17:28N 51°22' E 002°42'512.7
2018-Sep-18 17:03N 51°22' E 002°51'115.4
2018-Sep-18 17:00N 51°22' E 002°52'816.8
2018-Sep-18 16:30N 51°24' E 003°05'817.7
2018-Sep-18 16:03N 51°25' E 003°18'118.0
2018-Sep-18 16:00N 51°24' E 003°19'816.9
2018-Sep-18 15:30N 51°25' E 003°32'511.6
2018-Sep-18 15:03N 51°27' E 003°40'0 0.3
2018-Sep-18 15:00N 51°27' E 003°40'9 9.7
2018-Sep-18 14:03N 51°21' E 003°51'117.9
2018-Sep-18 14:00N 51°21' E 003°53'714.4
2018-Sep-18 13:31N 51°26' E 004°01'512.1
2018-Sep-18 13:04N 51°22' E 004°09'115.7
2018-Sep-18 13:01N 51°23' E 004°09'510.5
2018-Sep-18 12:30N 51°20' E 004°16'4 9.2
2018-Sep-18 12:03N 51°16' E 004°18'0 8.4
2018-Sep-18 12:00N 51°16' E 004°18'4 8.3
2018-Sep-18 11:30N 51°14' E 004°24'1 1.3
2018-Sep-18 11:03N 51°13' E 004°24'0 0.0
2018-Sep-18 11:00N 51°13' E 004°24'0 0.0
2018-Sep-18 10:29N 51°13' E 004°24'0 0.0
2018-Sep-18 10:02N 51°13' E 004°24'0 0.0
2018-Sep-18 10:00N 51°13' E 004°24'0 0.0
2018-Sep-18 09:29N 51°13' E 004°24'0 0.0
2018-Sep-18 09:02N 51°13' E 004°24'0 0.0
2018-Sep-18 08:59N 51°13' E 004°24'0 0.0
2018-Sep-18 08:30N 51°13' E 004°24'0 0.0
2018-Sep-18 08:02N 51°13' E 004°24'0 0.0
2018-Sep-18 07:59N 51°13' E 004°24'0 0.0
2018-Sep-18 07:29N 51°13' E 004°24'0 0.0
2018-Sep-18 07:02N 51°13' E 004°24'0 0.1
2018-Sep-18 06:59N 51°13' E 004°24'0 0.0
2018-Sep-18 06:29N 51°13' E 004°24'0 0.0
2018-Sep-18 06:02N 51°13' E 004°24'0 0.0
2018-Sep-18 06:00N 51°13' E 004°24'0 0.0
2018-Sep-18 05:29N 51°13' E 004°24'0 0.0
2018-Sep-18 05:03N 51°13' E 004°24'0 0.0
2018-Sep-18 04:59N 51°13' E 004°24'0 0.0
2018-Sep-18 04:29N 51°13' E 004°24'0 0.0
2018-Sep-18 04:03N 51°13' E 004°24'0 0.0
2018-Sep-18 03:59N 51°13' E 004°24'0 0.0
2018-Sep-18 03:30N 51°13' E 004°24'0 0.0
2018-Sep-18 03:02N 51°13' E 004°24'0 0.1
2018-Sep-18 02:59N 51°13' E 004°24'0 0.0
2018-Sep-18 02:29N 51°13' E 004°24'0 0.0
2018-Sep-18 02:02N 51°13' E 004°24'0 0.1
2018-Sep-18 01:59N 51°13' E 004°24'0 0.0
2018-Sep-18 01:29N 51°13' E 004°24'0 0.0
2018-Sep-18 01:02N 51°13' E 004°24'0 0.1
2018-Sep-18 00:59N 51°13' E 004°24'0 0.0
2018-Sep-18 00:29N 51°13' E 004°24'0 0.0
2018-Sep-18 00:02N 51°13' E 004°24'0 0.1
2018-Sep-17 23:59N 51°13' E 004°24'0 0.0
2018-Sep-17 23:30N 51°13' E 004°24'0 0.0
2018-Sep-17 23:02N 51°13' E 004°24'0 0.0
2018-Sep-17 22:59N 51°13' E 004°24'0 0.0
2018-Sep-17 22:29N 51°13' E 004°24'0 0.0
2018-Sep-17 22:02N 51°13' E 004°24'0 0.0
2018-Sep-17 21:59N 51°13' E 004°24'0 0.0
2018-Sep-17 21:29N 51°13' E 004°24'0 0.0
2018-Sep-17 21:02N 51°13' E 004°24'0 0.0
2018-Sep-17 20:59N 51°13' E 004°24'0 0.0
2018-Sep-17 20:29N 51°13' E 004°24'0 0.0
2018-Sep-17 20:02N 51°13' E 004°24'0 0.0
2018-Sep-17 19:59N 51°13' E 004°24'0 0.0
2018-Sep-17 19:29N 51°13' E 004°24'0 0.0
2018-Sep-17 19:02N 51°13' E 004°24'0 0.0
2018-Sep-17 18:59N 51°13' E 004°24'0 0.0
2018-Sep-17 18:29N 51°13' E 004°24'0 0.0
2018-Sep-17 18:02N 51°13' E 004°24'0 0.1
2018-Sep-17 17:59N 51°13' E 004°24'0 0.0
2018-Sep-17 17:29N 51°13' E 004°24'0 0.0
2018-Sep-17 17:02N 51°13' E 004°24'0 0.0
2018-Sep-17 16:59N 51°13' E 004°24'0 0.0
2018-Sep-17 16:29N 51°13' E 004°24'0 0.0
2018-Sep-17 16:02N 51°13' E 004°24'0 0.0
2018-Sep-17 15:59N 51°13' E 004°24'1 1.6
2018-Sep-17 15:31N 51°14' E 004°24'4 9.3
2018-Sep-17 15:03N 51°16' E 004°18'112.0
2018-Sep-17 15:00N 51°16' E 004°19'5 9.9
2018-Sep-17 14:30N 51°21' E 004°15'5 9.4
2018-Sep-17 14:00N 51°22' E 004°08'611.4
2018-Sep-17 13:30N 51°26' E 004°01'612.4
2018-Sep-17 13:03N 51°22' E 003°55'116.5
2018-Sep-17 13:00N 51°21' E 003°54'714.6
2018-Sep-17 12:30N 51°24' E 003°43'4 8.6
2018-Sep-17 12:03N 51°27' E 003°41'0 3.0
2018-Sep-17 11:59N 51°28' E 003°41'0 0.2
2018-Sep-17 11:26N 51°28' E 003°41'0 0.0
2018-Sep-17 11:02N 51°28' E 003°41'0 0.1
2018-Sep-17 10:59N 51°28' E 003°41'0 0.0
2018-Sep-17 10:29N 51°28' E 003°41'0 0.0
2018-Sep-17 10:02N 51°28' E 003°41'0 0.0
2018-Sep-17 09:59N 51°28' E 003°41'0 0.0
2018-Sep-17 09:29N 51°28' E 003°41'0 0.0
2018-Sep-17 09:02N 51°28' E 003°41'0 0.0
2018-Sep-17 08:59N 51°28' E 003°41'0 0.0
2018-Sep-17 08:29N 51°28' E 003°41'0 0.0
2018-Sep-17 08:02N 51°28' E 003°41'0 0.0
2018-Sep-17 07:59N 51°28' E 003°41'0 0.0
2018-Sep-17 07:29N 51°28' E 003°41'0 0.0
2018-Sep-17 07:02N 51°28' E 003°41'0 0.1
2018-Sep-17 06:59N 51°28' E 003°41'0 0.0
2018-Sep-17 06:29N 51°28' E 003°41'0 0.0
2018-Sep-17 06:02N 51°28' E 003°41'0 0.0
2018-Sep-17 05:59N 51°28' E 003°41'0 0.0
2018-Sep-17 05:30N 51°28' E 003°41'1 2.4
2018-Sep-17 05:03N 51°27' E 003°40'0 7.2
2018-Sep-17 05:00N 51°26' E 003°40'5 9.8
2018-Sep-17 04:30N 51°27' E 003°32'612.8
2018-Sep-17 04:03N 51°31' E 003°26'115.4
2018-Sep-17 04:00N 51°32' E 003°25'714.8
2018-Sep-17 03:30N 51°39' E 003°20'511.2
2018-Sep-17 03:02N 51°43' E 003°16'0 6.6
2018-Sep-17 02:59N 51°44' E 003°15'510.5
2018-Sep-17 02:30N 51°49' E 003°17'5 9.7
2018-Sep-17 02:02N 51°53' E 003°19'111.9
2018-Sep-17 01:57N 51°54' E 003°19'512.1
2018-Sep-17 01:30N 51°59' E 003°20'511.2
2018-Sep-17 01:03N 52°04' E 003°21'110.8
2018-Sep-17 01:00N 52°05' E 003°21'611.2
2018-Sep-17 00:30N 52°10' E 003°22'512.1
2018-Sep-17 00:04N 52°15' E 003°27'112.3
2018-Sep-17 00:01N 52°16' E 003°27'612.3
2018-Sep-16 23:30N 52°21' E 003°32'512.3
2018-Sep-16 23:03N 52°26' E 003°35'112.4
2018-Sep-16 23:00N 52°27' E 003°36'611.8
2018-Sep-16 22:30N 52°31' E 003°44'511.7
2018-Sep-16 22:03N 52°31' E 003°52'111.5
2018-Sep-16 22:00N 52°31' E 003°53'611.4
2018-Sep-16 21:30N 52°31' E 004°02'511.1
2018-Sep-16 21:03N 52°31' E 004°11'110.4
2018-Sep-16 21:00N 52°31' E 004°11'162.2
2018-Sep-16 21:00N 52°30' E 004°12'4 8.4 200 / 251016.310.8 18.016.320.0
2018-Sep-16 20:30N 52°30' E 004°19'511.8
2018-Sep-16 20:03N 52°29' E 004°27'110.2
2018-Sep-16 20:00N 52°29' E 004°28'5 9.2
2018-Sep-16 19:30N 52°28' E 004°36'1 1.3
2018-Sep-16 19:03N 52°28' E 004°36'0 2.2
2018-Sep-16 19:00N 52°28' E 004°37'2 3.2
2018-Sep-16 18:30N 52°28' E 004°39'2 4.1
2018-Sep-16 18:03N 52°27' E 004°42'0 4.5
2018-Sep-16 18:00N 52°27' E 004°42'2 4.3
2018-Sep-16 17:30N 52°26' E 004°45'2 4.4
2018-Sep-16 17:03N 52°25' E 004°48'0 4.3
2018-Sep-16 17:00N 52°25' E 004°49'2 4.3
2018-Sep-16 16:30N 52°25' E 004°52'2 4.8
2018-Sep-16 16:03N 52°23' E 004°54'0 4.7
2018-Sep-16 16:00N 52°23' E 004°54'0 1.0
2018-Sep-16 15:30N 52°23' E 004°55'0 0.0
2018-Sep-16 15:03N 52°23' E 004°55'0 0.0
2018-Sep-16 15:00N 52°23' E 004°55'0 0.0
2018-Sep-16 14:30N 52°23' E 004°55'0 0.0
2018-Sep-16 13:30N 52°23' E 004°55'0 0.0
2018-Sep-16 13:03N 52°23' E 004°55'0 0.0
2018-Sep-16 13:00N 52°23' E 004°55'0 0.0
2018-Sep-16 12:30N 52°23' E 004°55'0 0.0
2018-Sep-16 12:03N 52°23' E 004°55'0 0.0
2018-Sep-16 12:00N 52°23' E 004°55'0 0.0
2018-Sep-16 11:30N 52°23' E 004°55'0 0.0
2018-Sep-16 11:03N 52°23' E 004°55'0 0.0
2018-Sep-16 11:00N 52°23' E 004°55'0 0.0
2018-Sep-16 10:30N 52°23' E 004°55'0 0.0
2018-Sep-16 10:03N 52°23' E 004°55'0 0.0
2018-Sep-16 10:00N 52°23' E 004°55'0 0.0
2018-Sep-16 09:30N 52°23' E 004°55'0 0.0
2018-Sep-16 09:03N 52°23' E 004°55'0 0.0
2018-Sep-16 09:00N 52°23' E 004°55'0 0.0
2018-Sep-16 08:30N 52°23' E 004°55'0 0.0
2018-Sep-16 08:03N 52°23' E 004°55'0 0.1
2018-Sep-16 08:00N 52°23' E 004°55'0 0.0
2018-Sep-16 07:30N 52°23' E 004°55'0 0.0
2018-Sep-16 07:03N 52°23' E 004°55'0 0.1
2018-Sep-16 07:00N 52°23' E 004°55'0 0.0
2018-Sep-16 06:30N 52°23' E 004°55'0 0.0
2018-Sep-16 06:03N 52°23' E 004°55'0 0.0
2018-Sep-16 06:00N 52°23' E 004°55'0 0.0
2018-Sep-16 05:30N 52°23' E 004°55'0 0.4
2018-Sep-16 05:04N 52°23' E 004°55'0 2.6
2018-Sep-16 05:00N 52°23' E 004°55'2 3.5
2018-Sep-16 04:30N 52°24' E 004°53'3 6.6
2018-Sep-16 04:03N 52°25' E 004°48'0 7.3
2018-Sep-16 04:00N 52°25' E 004°48'4 8.0
2018-Sep-16 03:30N 52°27' E 004°42'3 7.3
2018-Sep-16 03:03N 52°28' E 004°37'0 1.6
2018-Sep-16 03:00N 52°28' E 004°37'0 0.7
2018-Sep-16 02:30N 52°28' E 004°36'1 2.7
2018-Sep-16 02:03N 52°28' E 004°34'0 3.5
2018-Sep-16 02:00N 52°28' E 004°34'4 8.6
2018-Sep-16 01:30N 52°28' E 004°27'511.0
2018-Sep-16 01:03N 52°28' E 004°19'116.8
2018-Sep-16 01:00N 52°28' E 004°17'816.9
2018-Sep-16 00:30N 52°28' E 004°03'817.1
2018-Sep-16 00:03N 52°26' E 003°51'117.3
2018-Sep-16 00:00N 52°26' E 003°50'917.1
2018-Sep-15 23:30N 52°23' E 003°36'816.9
2018-Sep-15 23:03N 52°18' E 003°27'117.1
2018-Sep-15 23:00N 52°17' E 003°26'917.2
2018-Sep-15 22:30N 52°11' E 003°16'816.1
2018-Sep-15 22:00N 52°06' E 003°06'135.4 210 / 181022.110.8 17.016.218.0
2018-Sep-15 21:57N 52°05' E 003°05'2222.8
2018-Sep-15 21:00N 51°48' E 002°42'4 8.9 210 / 151022.410.8 17.517.518.0
2018-Sep-15 20:31N 51°46' E 002°36'118.4
2018-Sep-15 20:29N 51°46' E 002°35'818.3
2018-Sep-15 20:02N 51°40' E 002°26'118.1
2018-Sep-15 20:00N 51°39' E 002°25'3991.3
2018-Sep-15 20:00N 51°36' E 002°24'612.9 210 / 201022.610.8 17.017.018.0
2018-Sep-15 19:30N 51°32' E 002°16'919.0
2018-Sep-15 19:03N 51°26' E 002°07'119.0
2018-Sep-15 19:00N 51°25' E 002°06'919.0
2018-Sep-15 18:30N 51°18' E 001°56'919.2
2018-Sep-15 18:03N 51°12' E 001°47'119.3
2018-Sep-15 18:00N 51°11' E 001°46'918.1
2018-Sep-15 17:30N 51°04' E 001°37'613.8
2018-Sep-15 17:03N 51°04' E 001°27'116.1
2018-Sep-15 17:00N 51°05' E 001°26'5 9.6
2018-Sep-15 16:30N 51°07' E 001°19'0 0.0
2018-Sep-15 15:59N 51°07' E 001°19'0 0.0
2018-Sep-15 15:29N 51°07' E 001°19'0 0.0
2018-Sep-15 14:59N 51°07' E 001°19'0 0.0
2018-Sep-15 14:29N 51°07' E 001°19'0 0.0
2018-Sep-15 13:59N 51°07' E 001°19'0 0.0
2018-Sep-15 13:29N 51°07' E 001°19'0 0.0
2018-Sep-15 12:59N 51°07' E 001°19'0 0.0
2018-Sep-15 12:26N 51°07' E 001°19'0 0.0
2018-Sep-15 12:02N 51°07' E 001°19'0 0.0
2018-Sep-15 11:59N 51°07' E 001°19'0 0.0
2018-Sep-15 11:26N 51°07' E 001°19'0 0.0
2018-Sep-15 11:02N 51°07' E 001°19'0 0.0
2018-Sep-15 10:50N 51°07' E 001°19'0 0.0
2018-Sep-15 10:23N 51°07' E 001°19'0 0.0
2018-Sep-15 10:02N 51°07' E 001°19'0 0.0
2018-Sep-15 09:59N 51°07' E 001°19'0 0.0
2018-Sep-15 09:29N 51°07' E 001°19'0 0.0
2018-Sep-15 09:02N 51°07' E 001°19'0 0.0
2018-Sep-15 08:56N 51°07' E 001°19'0 0.0
2018-Sep-15 08:20N 51°07' E 001°19'0 0.0
2018-Sep-15 08:02N 51°07' E 001°19'0 0.0
2018-Sep-15 07:50N 51°07' E 001°19'0 0.0
2018-Sep-15 07:26N 51°07' E 001°19'0 0.0
2018-Sep-15 07:02N 51°07' E 001°19'0 0.0
2018-Sep-15 06:53N 51°07' E 001°19'0 0.0
2018-Sep-15 06:20N 51°07' E 001°19'0 0.0
2018-Sep-15 06:02N 51°07' E 001°19'0 0.0
2018-Sep-15 05:55N 51°07' E 001°19'0 0.8
2018-Sep-15 05:30N 51°07' E 001°20'3 7.0
2018-Sep-15 05:03N 51°07' E 001°25'0 5.8
2018-Sep-15 05:00N 51°07' E 001°25'3 5.4
2018-Sep-15 04:30N 51°05' E 001°27'511.1
2018-Sep-15 04:03N 51°01' E 001°33'0 8.3
2018-Sep-15 04:01N 51°01' E 001°32'510.8
2018-Sep-15 03:30N 50°57' E 001°27'715.5
2018-Sep-15 03:03N 50°50' E 001°23'115.5
2018-Sep-15 03:00N 50°49' E 001°23'815.8
2018-Sep-15 02:29N 50°41' E 001°18'715.7
2018-Sep-15 02:03N 50°36' E 001°12'115.8
2018-Sep-15 02:00N 50°36' E 001°11'1115.0
2018-Sep-15 01:16N 50°28' E 000°58'315.5
2018-Sep-15 01:02N 50°27' E 000°53'115.7
2018-Sep-15 00:59N 50°27' E 000°52'715.7
2018-Sep-15 00:30N 50°25' E 000°40'2316.6
2018-Sep-14 23:09N 50°18' E 000°06'217.4
2018-Sep-14 23:03N 50°18' E 000°04'217.4
2018-Sep-14 22:57N 50°17' E 000°01'817.2
2018-Sep-14 22:30N 50°15' W 000°10'817.1
2018-Sep-14 22:03N 50°13' W 000°22'116.9
2018-Sep-14 22:00N 50°13' W 000°23'1018.2
2018-Sep-14 21:27N 50°10' W 000°38'819.0
2018-Sep-14 21:02N 50°08' W 000°50'118.5
2018-Sep-14 21:00N 50°08' W 000°51'918.4
2018-Sep-14 20:30N 50°06' W 001°05'817.7
2018-Sep-14 20:03N 50°04' W 001°17'117.7
2018-Sep-14 20:01N 50°04' W 001°18'816.8
2018-Sep-14 19:30N 50°02' W 001°31'716.1
2018-Sep-14 19:04N 49°58' W 001°41'115.9
2018-Sep-14 19:00N 49°58' W 001°42'815.6
2018-Sep-14 18:30N 49°54' W 001°52'614.3
2018-Sep-14 18:03N 49°52' W 002°02'115.7
2018-Sep-14 18:00N 49°51' W 002°03'1214.6
2018-Sep-14 17:12N 49°40' W 002°05'514.8
2018-Sep-14 16:53N 49°35' W 002°06'615.1
2018-Sep-14 16:28N 49°30' W 002°12'716.4
2018-Sep-14 16:03N 49°28' W 002°22'114.7
2018-Sep-14 16:00N 49°28' W 002°23'5 9.3
2018-Sep-14 15:30N 49°26' W 002°30'2 3.5
2018-Sep-14 15:03N 49°28' W 002°31'0 0.6
2018-Sep-14 15:00N 49°28' W 002°31'0 0.0
2018-Sep-14 14:20N 49°28' W 002°31'0 0.0
2018-Sep-14 12:26N 49°28' W 002°31'0 0.0
2018-Sep-14 11:26N 49°28' W 002°31'0 0.0
2018-Sep-14 11:02N 49°28' W 002°31'0 0.1
2018-Sep-14 10:56N 49°28' W 002°31'0 0.0
2018-Sep-14 10:26N 49°28' W 002°31'0 0.0
2018-Sep-14 09:56N 49°28' W 002°31'0 0.0
2018-Sep-14 09:26N 49°28' W 002°31'0 0.0
2018-Sep-14 09:02N 49°28' W 002°31'0 0.1
2018-Sep-14 08:38N 49°28' W 002°31'0 0.2
2018-Sep-14 08:29N 49°28' W 002°31'0 0.1
2018-Sep-14 07:50N 49°28' W 002°31'0 0.0
2018-Sep-14 07:26N 49°28' W 002°31'0 0.0
2018-Sep-14 06:59N 49°28' W 002°31'0 0.0
2018-Sep-14 06:08N 49°28' W 002°31'0 0.1
2018-Sep-14 06:03N 49°28' W 002°31'0 1.2
2018-Sep-14 06:00N 49°28' W 002°31'2 4.5
2018-Sep-14 05:30N 49°25' W 002°30'4 8.5
2018-Sep-14 05:03N 49°23' W 002°34'0 7.4
2018-Sep-14 05:00N 49°23' W 002°35'5 7.7
2018-Sep-14 04:18N 49°22' W 002°43'4 8.7
2018-Sep-14 03:48N 49°22' W 002°50'310.4
2018-Sep-14 03:30N 49°25' W 002°52'510.3
2018-Sep-14 03:02N 49°29' W 002°55'110.6
2018-Sep-14 02:58N 49°30' W 002°55'610.6
2018-Sep-14 02:26N 49°35' W 002°57'1910.9
2018-Sep-14 00:43N 49°54' W 003°04'210.5
2018-Sep-14 00:30N 49°56' W 003°03'4 9.7
2018-Sep-14 00:03N 49°57' W 002°57'0 9.9
2018-Sep-14 00:00N 49°58' W 002°56'5 9.3
2018-Sep-13 23:30N 49°59' W 002°49'4 8.7
2018-Sep-13 23:03N 50°00' W 002°43'0 8.5
2018-Sep-13 23:00N 50°00' W 002°43'4461.5
2018-Sep-13 23:00N 50°00' W 002°36'2 3.5 320 / 201021.510.8 16.012.418.0
2018-Sep-13 22:30N 50°02' W 002°37'3 7.7
2018-Sep-13 22:04N 50°03' W 002°32'684.1
2018-Sep-13 22:00N 50°00' W 002°24'5341.4 310 / 221021.510.8 16.012.418.0
2018-Sep-13 21:59N 50°03' W 002°31'14 7.9
2018-Sep-13 20:15N 50°15' W 002°22'510.0
2018-Sep-13 19:44N 50°20' W 002°20'210.1
2018-Sep-13 19:30N 50°23' W 002°20'510.4
2018-Sep-13 19:00N 50°28' W 002°19'5 9.8
2018-Sep-13 18:30N 50°33' W 002°20'4 8.6
2018-Sep-13 18:03N 50°35' W 002°25'0 5.3
2018-Sep-13 18:01N 50°35' W 002°25'1 2.1
2018-Sep-13 17:25N 50°34' W 002°26'0 0.0
2018-Sep-13 16:58N 50°34' W 002°26'0 0.0
2018-Sep-13 16:25N 50°34' W 002°26'0 0.0
2018-Sep-13 15:58N 50°34' W 002°26'0 0.0
2018-Sep-13 15:28N 50°34' W 002°26'0 0.0
2018-Sep-13 14:55N 50°34' W 002°26'0 0.0
2018-Sep-13 14:28N 50°34' W 002°26'0 0.0
2018-Sep-13 13:58N 50°34' W 002°26'0 0.0
2018-Sep-13 13:28N 50°34' W 002°26'0 0.0
2018-Sep-13 12:58N 50°34' W 002°26'0 0.0
2018-Sep-13 12:28N 50°34' W 002°26'0 0.0
2018-Sep-13 11:58N 50°34' W 002°26'0 0.0
2018-Sep-13 11:28N 50°34' W 002°26'0 0.0
2018-Sep-13 09:25N 50°34' W 002°26'0 0.0
2018-Sep-13 08:58N 50°34' W 002°26'0 0.0
2018-Sep-13 08:28N 50°34' W 002°26'0 0.0
2018-Sep-13 07:52N 50°34' W 002°26'0 0.0
2018-Sep-13 07:28N 50°34' W 002°26'0 0.0
2018-Sep-13 06:55N 50°34' W 002°26'0 0.0
2018-Sep-13 06:25N 50°34' W 002°26'0 0.0
2018-Sep-13 05:58N 50°34' W 002°26'0 0.2
2018-Sep-13 05:30N 50°34' W 002°26'2 4.7
2018-Sep-13 05:03N 50°36' W 002°23'0 5.7
2018-Sep-13 05:00N 50°35' W 002°23'4 8.2
2018-Sep-13 04:30N 50°32' W 002°19'510.4
2018-Sep-13 04:03N 50°27' W 002°20'112.0
2018-Sep-13 03:58N 50°27' W 002°21'511.5
2018-Sep-13 03:30N 50°24' W 002°29'611.1
2018-Sep-13 03:00N 50°22' W 002°37'5 9.6
2018-Sep-13 02:30N 50°20' W 002°43'4 9.3
2018-Sep-13 02:03N 50°18' W 002°49'0 9.6
2018-Sep-13 02:00N 50°18' W 002°50'5 9.7
2018-Sep-13 01:30N 50°16' W 002°57'4 9.9
2018-Sep-13 01:03N 50°14' W 003°03'110.1
2018-Sep-13 01:00N 50°14' W 003°04'7418.8
2018-Sep-13 01:00N 50°12' W 002°54'1122.7 010 / 111023.110.8 14.014.017.0
2018-Sep-13 00:30N 50°12' W 003°11'510.2
2018-Sep-13 00:03N 50°10' W 003°18'110.4
2018-Sep-13 00:00N 50°10' W 003°19'510.3
2018-Sep-12 23:30N 50°08' W 003°26'510.6
2018-Sep-12 23:03N 50°06' W 003°33'110.7
2018-Sep-12 23:00N 50°05' W 003°33'6369.2
2018-Sep-12 23:00N 50°00' W 003°36'5 9.3 350 / 181023.510.8 14.513.617.0
2018-Sep-12 22:30N 50°03' W 003°41'511.3
2018-Sep-12 22:03N 50°01' W 003°48'111.6
2018-Sep-12 22:00N 50°01' W 003°49'611.8
2018-Sep-12 21:30N 49°60' W 003°58'711.5
2018-Sep-12 20:56N 49°58' W 004°08'511.6
2018-Sep-12 20:29N 49°56' W 004°16'511.7
2018-Sep-12 20:04N 49°55' W 004°23'111.8
2018-Sep-12 20:01N 49°55' W 004°24'170.9
2018-Sep-12 20:00N 49°54' W 004°24'612.3 360 / 131023.010.8 15.013.217.0
2018-Sep-12 19:30N 49°54' W 004°33'711.9
2018-Sep-12 18:56N 49°54' W 004°44'511.9
2018-Sep-12 18:30N 49°53' W 004°52'2911.6
2018-Sep-12 16:00N 49°48' W 005°36'98 9.4 020 / 181023.810.8 14.014.016.0
2018-Sep-12 05:32N 51°25' W 005°59'3412.1
2018-Sep-12 02:46N 51°59' W 005°52'413.8
2018-Sep-12 02:27N 52°03' W 005°51'513.6
2018-Sep-12 02:03N 52°08' W 005°50'113.4
2018-Sep-12 02:00N 52°09' W 005°50'713.3
2018-Sep-12 01:30N 52°15' W 005°48'612.5
2018-Sep-12 01:03N 52°21' W 005°47'112.1
2018-Sep-12 01:00N 52°22' W 005°46'611.7
2018-Sep-12 00:30N 52°27' W 005°45'511.1
2018-Sep-12 00:03N 52°32' W 005°43'110.5
2018-Sep-12 00:00N 52°33' W 005°43'9 9.9
2018-Sep-11 23:07N 52°42' W 005°41'1 9.2
2018-Sep-11 23:00N 52°43' W 005°41'3391.9
2018-Sep-11 23:00N 52°42' W 005°36'510.8 290 / 221019.110.8 13.512.614.0
2018-Sep-11 22:30N 52°47' W 005°39'4 8.0
2018-Sep-11 22:03N 52°50' W 005°38'0 7.7
2018-Sep-11 22:00N 52°51' W 005°38'3236.3
2018-Sep-11 22:00N 52°48' W 005°36'713.4 280 / 241018.910.8 14.012.214.0
2018-Sep-11 21:30N 52°55' W 005°37'3 7.4
2018-Sep-11 21:03N 52°58' W 005°37'0 7.3
2018-Sep-11 21:00N 52°58' W 005°37'4320.8
2018-Sep-11 21:00N 52°54' W 005°36'816.1 280 / 221018.110.8 14.512.714.0
2018-Sep-11 20:30N 53°02' W 005°36'4 7.5
2018-Sep-11 20:01N 53°05' W 005°38'151.0
2018-Sep-11 20:00N 53°06' W 005°36'1103.1 270 / 221017.610.8 15.011.314.0
2018-Sep-11 19:59N 53°06' W 005°38'4 8.7
2018-Sep-11 19:30N 53°09' W 005°41'4 9.6
2018-Sep-11 19:03N 53°13' W 005°44'0 9.9
2018-Sep-11 19:00N 53°14' W 005°45'510.0
2018-Sep-11 18:30N 53°18' W 005°49'510.5
2018-Sep-11 18:03N 53°22' W 005°53'210.5
2018-Sep-11 17:55N 53°22' W 005°56'10 0.3
2018-Sep-10 11:09N 53°21' W 006°13'0 0.0
2018-Sep-10 11:00N 53°21' W 006°13'2 0.5
2018-Sep-10 06:32N 53°21' W 006°10'310.3
2018-Sep-10 06:14N 53°20' W 006°04'2 7.2
2018-Sep-10 05:55N 53°21' W 006°01'3 7.1
2018-Sep-10 05:31N 53°24' W 005°58'13 8.3
2018-Sep-10 03:54N 53°35' W 005°47'4 9.2
2018-Sep-10 03:31N 53°38' W 005°44'7 9.0
2018-Sep-10 02:41N 53°45' W 005°37'2 9.0
2018-Sep-10 02:27N 53°46' W 005°35'4 8.8
2018-Sep-10 02:00N 53°50' W 005°32'10 8.7
2018-Sep-10 00:48N 53°59' W 005°23'3 8.4
2018-Sep-10 00:30N 54°01' W 005°21'4 8.2
2018-Sep-10 00:03N 54°04' W 005°18'0 8.2
2018-Sep-10 00:00N 54°05' W 005°18'4 8.3
2018-Sep-09 23:30N 54°08' W 005°14'4 8.0
2018-Sep-09 23:03N 54°11' W 005°11'0 8.4
2018-Sep-09 23:00N 54°12' W 005°11'4 8.4
2018-Sep-09 22:30N 54°15' W 005°07'4 8.4
2018-Sep-09 22:03N 54°19' W 005°04'0 8.4
2018-Sep-09 22:01N 54°19' W 005°03'2133.5
2018-Sep-09 22:00N 54°18' W 005°00'510.5 250 / 401012.110.8 14.511.715.0
2018-Sep-09 21:30N 54°23' W 005°02'4 8.4
2018-Sep-09 21:04N 54°27' W 005°02'0 8.5
2018-Sep-09 21:01N 54°27' W 005°02'3178.2
2018-Sep-09 21:00N 54°30' W 005°00'3 6.6 250 / 251012.410.8 14.511.715.0
2018-Sep-09 20:31N 54°31' W 005°05'4 9.4
2018-Sep-09 20:04N 54°35' W 005°09'0 9.6
2018-Sep-09 20:01N 54°35' W 005°10'187.2
2018-Sep-09 20:00N 54°36' W 005°12'3 7.2 250 / 221011.710.8 14.511.715.0
2018-Sep-09 19:30N 54°38' W 005°17'510.6
2018-Sep-09 19:04N 54°40' W 005°24'111.9
2018-Sep-09 19:01N 54°41' W 005°25'611.6
2018-Sep-09 18:31N 54°43' W 005°34'4 9.5
2018-Sep-09 18:04N 54°42' W 005°41'0 9.1
2018-Sep-09 18:01N 54°42' W 005°42'510.1
2018-Sep-09 17:30N 54°40' W 005°50'1 0.1
2018-Sep-09 05:58N 54°39' W 005°51'510.6
2018-Sep-09 05:30N 54°42' W 005°44'3 5.7
2018-Sep-09 05:03N 54°43' W 005°40'0 6.8
2018-Sep-09 05:00N 54°44' W 005°40'3 5.4
2018-Sep-09 04:30N 54°44' W 005°35'2 5.4
2018-Sep-09 04:03N 54°46' W 005°32'0 5.3
2018-Sep-09 04:00N 54°46' W 005°32'  
Track history (hours):
 
Tides and Currents Weather Stations Pressure Air Temp Water Temp Dewpoint Dewpoint Depression Visibility Wind Speed Wind Dir Waves Ship Positions

Prinsendam

Operator: Holland America Line

Last reported at 2018-Sep-19 03:30 UTC. Time now 2018-Sep-19 03:53 UTC.
Position N 49°30' W 000°10'.

Type: Ship. MMSI: 244126000.

Date/timePositionNaut miles runAvg speedWind from/ knotsBaromVisibWave heightAir tempDewpointWater temp
2018-Sep-19 03:30N 49°30' W 000°10'817.6
2018-Sep-19 03:03N 49°38' W 000°12'118.7
2018-Sep-19 03:00N 49°39' W 000°11'815.9
2018-Sep-19 02:30N 49°47' W 000°11'716.6
2018-Sep-19 02:03N 49°54' W 000°10'118.7
2018-Sep-19 02:01N 49°55' W 000°10'1019.5
2018-Sep-19 01:30N 50°05' W 000°09'919.4
2018-Sep-19 01:03N 50°14' W 000°07'119.5
2018-Sep-19 01:00N 50°15' W 000°06'1318.7
2018-Sep-19 00:19N 50°28' W 000°05'519.3
2018-Sep-19 00:03N 50°29' E 000°03'119.5
2018-Sep-18 23:59N 50°30' E 000°05'919.6
2018-Sep-18 23:31N 50°33' E 000°19'919.8
2018-Sep-18 23:03N 50°35' E 000°32'119.8
2018-Sep-18 23:00N 50°35' E 000°34'1019.5
2018-Sep-18 22:30N 50°41' E 000°46'919.7
2018-Sep-18 22:03N 50°46' E 000°57'119.5
2018-Sep-18 22:01N 50°47' E 000°58'6345.7
2018-Sep-18 22:00N 50°42' E 000°54'1531.5 210 / 171012.310.8 18.518.520.0
2018-Sep-18 21:30N 50°54' E 001°09'919.1
2018-Sep-18 21:03N 50°60' E 001°19'118.7
2018-Sep-18 21:01N 51°00' E 001°20'918.2
2018-Sep-18 20:31N 51°06' E 001°32'817.7
2018-Sep-18 20:04N 51°10' E 001°42'117.8
2018-Sep-18 20:01N 51°11' E 001°43'918.0
2018-Sep-18 19:31N 51°18' E 001°52'817.9
2018-Sep-18 19:03N 51°25' E 001°59'117.8
2018-Sep-18 19:01N 51°25' E 002°01'918.3
2018-Sep-18 18:30N 51°21' E 002°14'817.6
2018-Sep-18 18:01N 51°22' E 002°27'116.6
2018-Sep-18 18:00N 51°22' E 002°28'917.1
2018-Sep-18 17:28N 51°22' E 002°42'512.7
2018-Sep-18 17:03N 51°22' E 002°51'115.4
2018-Sep-18 17:00N 51°22' E 002°52'816.8
2018-Sep-18 16:30N 51°24' E 003°05'817.7
2018-Sep-18 16:03N 51°25' E 003°18'118.0
2018-Sep-18 16:00N 51°24' E 003°19'816.9
2018-Sep-18 15:30N 51°25' E 003°32'511.6
2018-Sep-18 15:03N 51°27' E 003°40'0 0.3
2018-Sep-18 15:00N 51°27' E 003°40'9 9.7
2018-Sep-18 14:03N 51°21' E 003°51'117.9
2018-Sep-18 14:00N 51°21' E 003°53'714.4
2018-Sep-18 13:31N 51°26' E 004°01'512.1
2018-Sep-18 13:04N 51°22' E 004°09'115.7
2018-Sep-18 13:01N 51°23' E 004°09'510.5
2018-Sep-18 12:30N 51°20' E 004°16'4 9.2
2018-Sep-18 12:03N 51°16' E 004°18'0 8.4
2018-Sep-18 12:00N 51°16' E 004°18'4 8.3
2018-Sep-18 11:30N 51°14' E 004°24'1 1.3
2018-Sep-18 11:03N 51°13' E 004°24'0 0.0
2018-Sep-18 11:00N 51°13' E 004°24'0 0.0
2018-Sep-18 10:29N 51°13' E 004°24'0 0.0
2018-Sep-18 10:02N 51°13' E 004°24'0 0.0
2018-Sep-18 10:00N 51°13' E 004°24'0 0.0
2018-Sep-18 09:29N 51°13' E 004°24'0 0.0
2018-Sep-18 09:02N 51°13' E 004°24'0 0.0
2018-Sep-18 08:59N 51°13' E 004°24'0 0.0
2018-Sep-18 08:30N 51°13' E 004°24'0 0.0
2018-Sep-18 08:02N 51°13' E 004°24'0 0.0
2018-Sep-18 07:59N 51°13' E 004°24'0 0.0
2018-Sep-18 07:29N 51°13' E 004°24'0 0.0
2018-Sep-18 07:02N 51°13' E 004°24'0 0.1
2018-Sep-18 06:59N 51°13' E 004°24'0 0.0
2018-Sep-18 06:29N 51°13' E 004°24'0 0.0
2018-Sep-18 06:02N 51°13' E 004°24'0 0.0
2018-Sep-18 06:00N 51°13' E 004°24'0 0.0
2018-Sep-18 05:29N 51°13' E 004°24'0 0.0
2018-Sep-18 05:03N 51°13' E 004°24'0 0.0
2018-Sep-18 04:59N 51°13' E 004°24'0 0.0
2018-Sep-18 04:29N 51°13' E 004°24'0 0.0
2018-Sep-18 04:03N 51°13' E 004°24'0 0.0
2018-Sep-18 03:59N 51°13' E 004°24'0 0.0
2018-Sep-18 03:30N 51°13' E 004°24'0 0.0
2018-Sep-18 03:02N 51°13' E 004°24'0 0.1
2018-Sep-18 02:59N 51°13' E 004°24'0 0.0
2018-Sep-18 02:29N 51°13' E 004°24'0 0.0
2018-Sep-18 02:02N 51°13' E 004°24'0 0.1
2018-Sep-18 01:59N 51°13' E 004°24'0 0.0
2018-Sep-18 01:29N 51°13' E 004°24'0 0.0
2018-Sep-18 01:02N 51°13' E 004°24'0 0.1
2018-Sep-18 00:59N 51°13' E 004°24'0 0.0
2018-Sep-18 00:29N 51°13' E 004°24'0 0.0
2018-Sep-18 00:02N 51°13' E 004°24'0 0.1
2018-Sep-17 23:59N 51°13' E 004°24'0 0.0
2018-Sep-17 23:30N 51°13' E 004°24'0 0.0
2018-Sep-17 23:02N 51°13' E 004°24'0 0.0
2018-Sep-17 22:59N 51°13' E 004°24'0 0.0
2018-Sep-17 22:29N 51°13' E 004°24'0 0.0
2018-Sep-17 22:02N 51°13' E 004°24'0 0.0
2018-Sep-17 21:59N 51°13' E 004°24'0 0.0
2018-Sep-17 21:29N 51°13' E 004°24'0 0.0
2018-Sep-17 21:02N 51°13' E 004°24'0 0.0
2018-Sep-17 20:59N 51°13' E 004°24'0 0.0
2018-Sep-17 20:29N 51°13' E 004°24'0 0.0
2018-Sep-17 20:02N 51°13' E 004°24'0 0.0
2018-Sep-17 19:59N 51°13' E 004°24'0 0.0
2018-Sep-17 19:29N 51°13' E 004°24'0 0.0
2018-Sep-17 19:02N 51°13' E 004°24'0 0.0
2018-Sep-17 18:59N 51°13' E 004°24'0 0.0
2018-Sep-17 18:29N 51°13' E 004°24'0 0.0
2018-Sep-17 18:02N 51°13' E 004°24'0 0.1
2018-Sep-17 17:59N 51°13' E 004°24'0 0.0
2018-Sep-17 17:29N 51°13' E 004°24'0 0.0
2018-Sep-17 17:02N 51°13' E 004°24'0 0.0
2018-Sep-17 16:59N 51°13' E 004°24'0 0.0
2018-Sep-17 16:29N 51°13' E 004°24'0 0.0
2018-Sep-17 16:02N 51°13' E 004°24'0 0.0
2018-Sep-17 15:59N 51°13' E 004°24'1 1.6
2018-Sep-17 15:31N 51°14' E 004°24'4 9.3
2018-Sep-17 15:03N 51°16' E 004°18'112.0
2018-Sep-17 15:00N 51°16' E 004°19'5 9.9
2018-Sep-17 14:30N 51°21' E 004°15'5 9.4
2018-Sep-17 14:00N 51°22' E 004°08'611.4
2018-Sep-17 13:30N 51°26' E 004°01'612.4
2018-Sep-17 13:03N 51°22' E 003°55'116.5
2018-Sep-17 13:00N 51°21' E 003°54'714.6
2018-Sep-17 12:30N 51°24' E 003°43'4 8.6
2018-Sep-17 12:03N 51°27' E 003°41'0 3.0
2018-Sep-17 11:59N 51°28' E 003°41'0 0.2
2018-Sep-17 11:26N 51°28' E 003°41'0 0.0
2018-Sep-17 11:02N 51°28' E 003°41'0 0.1
2018-Sep-17 10:59N 51°28' E 003°41'0 0.0
2018-Sep-17 10:29N 51°28' E 003°41'0 0.0
2018-Sep-17 10:02N 51°28' E 003°41'0 0.0
2018-Sep-17 09:59N 51°28' E 003°41'0 0.0
2018-Sep-17 09:29N 51°28' E 003°41'0 0.0
2018-Sep-17 09:02N 51°28' E 003°41'0 0.0
2018-Sep-17 08:59N 51°28' E 003°41'0 0.0
2018-Sep-17 08:29N 51°28' E 003°41'0 0.0
2018-Sep-17 08:02N 51°28' E 003°41'0 0.0
2018-Sep-17 07:59N 51°28' E 003°41'0 0.0
2018-Sep-17 07:29N 51°28' E 003°41'0 0.0
2018-Sep-17 07:02N 51°28' E 003°41'0 0.1
2018-Sep-17 06:59N 51°28' E 003°41'0 0.0
2018-Sep-17 06:29N 51°28' E 003°41'0 0.0
2018-Sep-17 06:02N 51°28' E 003°41'0 0.0
2018-Sep-17 05:59N 51°28' E 003°41'0 0.0
2018-Sep-17 05:30N 51°28' E 003°41'1 2.4
2018-Sep-17 05:03N 51°27' E 003°40'0 7.2
2018-Sep-17 05:00N 51°26' E 003°40'5 9.8
2018-Sep-17 04:30N 51°27' E 003°32'612.8
2018-Sep-17 04:03N 51°31' E 003°26'115.4
2018-Sep-17 04:00N 51°32' E 003°25'714.8
2018-Sep-17 03:30N 51°39' E 003°20'511.2
2018-Sep-17 03:02N 51°43' E 003°16'0 6.6
2018-Sep-17 02:59N 51°44' E 003°15'510.5
2018-Sep-17 02:30N 51°49' E 003°17'5 9.7
2018-Sep-17 02:02N 51°53' E 003°19'111.9
2018-Sep-17 01:57N 51°54' E 003°19'512.1
2018-Sep-17 01:30N 51°59' E 003°20'511.2
2018-Sep-17 01:03N 52°04' E 003°21'110.8
2018-Sep-17 01:00N 52°05' E 003°21'611.2
2018-Sep-17 00:30N 52°10' E 003°22'512.1
2018-Sep-17 00:04N 52°15' E 003°27'112.3
2018-Sep-17 00:01N 52°16' E 003°27'612.3
2018-Sep-16 23:30N 52°21' E 003°32'512.3
2018-Sep-16 23:03N 52°26' E 003°35'112.4
2018-Sep-16 23:00N 52°27' E 003°36'611.8
2018-Sep-16 22:30N 52°31' E 003°44'511.7
2018-Sep-16 22:03N 52°31' E 003°52'111.5
2018-Sep-16 22:00N 52°31' E 003°53'611.4
2018-Sep-16 21:30N 52°31' E 004°02'511.1
2018-Sep-16 21:03N 52°31' E 004°11'110.4
2018-Sep-16 21:00N 52°31' E 004°11'162.2
2018-Sep-16 21:00N 52°30' E 004°12'4 8.4 200 / 251016.310.8 18.016.320.0
2018-Sep-16 20:30N 52°30' E 004°19'511.8
2018-Sep-16 20:03N 52°29' E 004°27'110.2
2018-Sep-16 20:00N 52°29' E 004°28'5 9.2
2018-Sep-16 19:30N 52°28' E 004°36'1 1.3
2018-Sep-16 19:03N 52°28' E 004°36'0 2.2
2018-Sep-16 19:00N 52°28' E 004°37'2 3.2
2018-Sep-16 18:30N 52°28' E 004°39'2 4.1
2018-Sep-16 18:03N 52°27' E 004°42'0 4.5
2018-Sep-16 18:00N 52°27' E 004°42'2 4.3
2018-Sep-16 17:30N 52°26' E 004°45'2 4.4
2018-Sep-16 17:03N 52°25' E 004°48'0 4.3
2018-Sep-16 17:00N 52°25' E 004°49'2 4.3
2018-Sep-16 16:30N 52°25' E 004°52'2 4.8
2018-Sep-16 16:03N 52°23' E 004°54'0 4.7
2018-Sep-16 16:00N 52°23' E 004°54'0 1.0
2018-Sep-16 15:30N 52°23' E 004°55'0 0.0
2018-Sep-16 15:03N 52°23' E 004°55'0 0.0
2018-Sep-16 15:00N 52°23' E 004°55'0 0.0
2018-Sep-16 14:30N 52°23' E 004°55'0 0.0
2018-Sep-16 13:30N 52°23' E 004°55'0 0.0
2018-Sep-16 13:03N 52°23' E 004°55'0 0.0
2018-Sep-16 13:00N 52°23' E 004°55'0 0.0
2018-Sep-16 12:30N 52°23' E 004°55'0 0.0
2018-Sep-16 12:03N 52°23' E 004°55'0 0.0
2018-Sep-16 12:00N 52°23' E 004°55'0 0.0
2018-Sep-16 11:30N 52°23' E 004°55'0 0.0
2018-Sep-16 11:03N 52°23' E 004°55'0 0.0
2018-Sep-16 11:00N 52°23' E 004°55'0 0.0
2018-Sep-16 10:30N 52°23' E 004°55'0 0.0
2018-Sep-16 10:03N 52°23' E 004°55'0 0.0
2018-Sep-16 10:00N 52°23' E 004°55'0 0.0
2018-Sep-16 09:30N 52°23' E 004°55'0 0.0
2018-Sep-16 09:03N 52°23' E 004°55'0 0.0
2018-Sep-16 09:00N 52°23' E 004°55'0 0.0
2018-Sep-16 08:30N 52°23' E 004°55'0 0.0
2018-Sep-16 08:03N 52°23' E 004°55'0 0.1
2018-Sep-16 08:00N 52°23' E 004°55'0 0.0
2018-Sep-16 07:30N 52°23' E 004°55'0 0.0
2018-Sep-16 07:03N 52°23' E 004°55'0 0.1
2018-Sep-16 07:00N 52°23' E 004°55'0 0.0
2018-Sep-16 06:30N 52°23' E 004°55'0 0.0
2018-Sep-16 06:03N 52°23' E 004°55'0 0.0
2018-Sep-16 06:00N 52°23' E 004°55'0 0.0
2018-Sep-16 05:30N 52°23' E 004°55'0 0.4
2018-Sep-16 05:04N 52°23' E 004°55'0 2.6
2018-Sep-16 05:00N 52°23' E 004°55'2 3.5
2018-Sep-16 04:30N 52°24' E 004°53'3 6.6
2018-Sep-16 04:03N 52°25' E 004°48'0 7.3
2018-Sep-16 04:00N 52°25' E 004°48'4 8.0
2018-Sep-16 03:30N 52°27' E 004°42'3 7.3
2018-Sep-16 03:03N 52°28' E 004°37'0 1.6
2018-Sep-16 03:00N 52°28' E 004°37'0 0.7
2018-Sep-16 02:30N 52°28' E 004°36'1 2.7
2018-Sep-16 02:03N 52°28' E 004°34'0 3.5
2018-Sep-16 02:00N 52°28' E 004°34'4 8.6
2018-Sep-16 01:30N 52°28' E 004°27'511.0
2018-Sep-16 01:03N 52°28' E 004°19'116.8
2018-Sep-16 01:00N 52°28' E 004°17'816.9
2018-Sep-16 00:30N 52°28' E 004°03'817.1
2018-Sep-16 00:03N 52°26' E 003°51'117.3
2018-Sep-16 00:00N 52°26' E 003°50'917.1
2018-Sep-15 23:30N 52°23' E 003°36'816.9
2018-Sep-15 23:03N 52°18' E 003°27'117.1
2018-Sep-15 23:00N 52°17' E 003°26'917.2
2018-Sep-15 22:30N 52°11' E 003°16'816.1
2018-Sep-15 22:00N 52°06' E 003°06'135.4 210 / 181022.110.8 17.016.218.0
2018-Sep-15 21:57N 52°05' E 003°05'2222.8
2018-Sep-15 21:00N 51°48' E 002°42'4 8.9 210 / 151022.410.8 17.517.518.0
2018-Sep-15 20:31N 51°46' E 002°36'118.4
2018-Sep-15 20:29N 51°46' E 002°35'818.3
2018-Sep-15 20:02N 51°40' E 002°26'118.1
2018-Sep-15 20:00N 51°39' E 002°25'3991.3
2018-Sep-15 20:00N 51°36' E 002°24'612.9 210 / 201022.610.8 17.017.018.0
2018-Sep-15 19:30N 51°32' E 002°16'919.0
2018-Sep-15 19:03N 51°26' E 002°07'119.0
2018-Sep-15 19:00N 51°25' E 002°06'919.0
2018-Sep-15 18:30N 51°18' E 001°56'919.2
2018-Sep-15 18:03N 51°12' E 001°47'119.3
2018-Sep-15 18:00N 51°11' E 001°46'918.1
2018-Sep-15 17:30N 51°04' E 001°37'613.8
2018-Sep-15 17:03N 51°04' E 001°27'116.1
2018-Sep-15 17:00N 51°05' E 001°26'5 9.6
2018-Sep-15 16:30N 51°07' E 001°19'0 0.0
2018-Sep-15 15:59N 51°07' E 001°19'0 0.0
2018-Sep-15 15:29N 51°07' E 001°19'0 0.0
2018-Sep-15 14:59N 51°07' E 001°19'0 0.0
2018-Sep-15 14:29N 51°07' E 001°19'0 0.0
2018-Sep-15 13:59N 51°07' E 001°19'0 0.0
2018-Sep-15 13:29N 51°07' E 001°19'0 0.0
2018-Sep-15 12:59N 51°07' E 001°19'0 0.0
2018-Sep-15 12:26N 51°07' E 001°19'0 0.0
2018-Sep-15 12:02N 51°07' E 001°19'0 0.0
2018-Sep-15 11:59N 51°07' E 001°19'0 0.0
2018-Sep-15 11:26N 51°07' E 001°19'0 0.0
2018-Sep-15 11:02N 51°07' E 001°19'0 0.0
2018-Sep-15 10:50N 51°07' E 001°19'0 0.0
2018-Sep-15 10:23N 51°07' E 001°19'0 0.0
2018-Sep-15 10:02N 51°07' E 001°19'0 0.0
2018-Sep-15 09:59N 51°07' E 001°19'0 0.0
2018-Sep-15 09:29N 51°07' E 001°19'0 0.0
2018-Sep-15 09:02N 51°07' E 001°19'0 0.0
2018-Sep-15 08:56N 51°07' E 001°19'0 0.0
2018-Sep-15 08:20N 51°07' E 001°19'0 0.0
2018-Sep-15 08:02N 51°07' E 001°19'0 0.0
2018-Sep-15 07:50N 51°07' E 001°19'0 0.0
2018-Sep-15 07:26N 51°07' E 001°19'0 0.0
2018-Sep-15 07:02N 51°07' E 001°19'0 0.0
2018-Sep-15 06:53N 51°07' E 001°19'0 0.0
2018-Sep-15 06:20N 51°07' E 001°19'0 0.0
2018-Sep-15 06:02N 51°07' E 001°19'0 0.0
2018-Sep-15 05:55N 51°07' E 001°19'0 0.8
2018-Sep-15 05:30N 51°07' E 001°20'3 7.0
2018-Sep-15 05:03N 51°07' E 001°25'0 5.8
2018-Sep-15 05:00N 51°07' E 001°25'3 5.4
2018-Sep-15 04:30N 51°05' E 001°27'511.1
2018-Sep-15 04:03N 51°01' E 001°33'0 8.3
2018-Sep-15 04:01N 51°01' E 001°32'510.8
2018-Sep-15 03:30N 50°57' E 001°27'715.5
2018-Sep-15 03:03N 50°50' E 001°23'115.5
2018-Sep-15 03:00N 50°49' E 001°23'815.8
2018-Sep-15 02:29N 50°41' E 001°18'715.7
2018-Sep-15 02:03N 50°36' E 001°12'115.8
2018-Sep-15 02:00N 50°36' E 001°11'1115.0
2018-Sep-15 01:16N 50°28' E 000°58'315.5
2018-Sep-15 01:02N 50°27' E 000°53'115.7
2018-Sep-15 00:59N 50°27' E 000°52'715.7
2018-Sep-15 00:30N 50°25' E 000°40'2316.6
2018-Sep-14 23:09N 50°18' E 000°06'217.4
2018-Sep-14 23:03N 50°18' E 000°04'217.4
2018-Sep-14 22:57N 50°17' E 000°01'817.2
2018-Sep-14 22:30N 50°15' W 000°10'817.1
2018-Sep-14 22:03N 50°13' W 000°22'116.9
2018-Sep-14 22:00N 50°13' W 000°23'1018.2
2018-Sep-14 21:27N 50°10' W 000°38'819.0
2018-Sep-14 21:02N 50°08' W 000°50'118.5
2018-Sep-14 21:00N 50°08' W 000°51'918.4
2018-Sep-14 20:30N 50°06' W 001°05'817.7
2018-Sep-14 20:03N 50°04' W 001°17'117.7
2018-Sep-14 20:01N 50°04' W 001°18'816.8
2018-Sep-14 19:30N 50°02' W 001°31'716.1
2018-Sep-14 19:04N 49°58' W 001°41'115.9
2018-Sep-14 19:00N 49°58' W 001°42'815.6
2018-Sep-14 18:30N 49°54' W 001°52'614.3
2018-Sep-14 18:03N 49°52' W 002°02'115.7
2018-Sep-14 18:00N 49°51' W 002°03'1214.6
2018-Sep-14 17:12N 49°40' W 002°05'514.8
2018-Sep-14 16:53N 49°35' W 002°06'615.1
2018-Sep-14 16:28N 49°30' W 002°12'716.4
2018-Sep-14 16:03N 49°28' W 002°22'114.7
2018-Sep-14 16:00N 49°28' W 002°23'5 9.3
2018-Sep-14 15:30N 49°26' W 002°30'2 3.5
2018-Sep-14 15:03N 49°28' W 002°31'0 0.6
2018-Sep-14 15:00N 49°28' W 002°31'0 0.0
2018-Sep-14 14:20N 49°28' W 002°31'0 0.0
2018-Sep-14 12:26N 49°28' W 002°31'0 0.0
2018-Sep-14 11:26N 49°28' W 002°31'0 0.0
2018-Sep-14 11:02N 49°28' W 002°31'0 0.1
2018-Sep-14 10:56N 49°28' W 002°31'0 0.0
2018-Sep-14 10:26N 49°28' W 002°31'0 0.0
2018-Sep-14 09:56N 49°28' W 002°31'0 0.0
2018-Sep-14 09:26N 49°28' W 002°31'0 0.0
2018-Sep-14 09:02N 49°28' W 002°31'0 0.1
2018-Sep-14 08:38N 49°28' W 002°31'0 0.2
2018-Sep-14 08:29N 49°28' W 002°31'0 0.1
2018-Sep-14 07:50N 49°28' W 002°31'0 0.0
2018-Sep-14 07:26N 49°28' W 002°31'0 0.0
2018-Sep-14 06:59N 49°28' W 002°31'0 0.0
2018-Sep-14 06:08N 49°28' W 002°31'0 0.1
2018-Sep-14 06:03N 49°28' W 002°31'0 1.2
2018-Sep-14 06:00N 49°28' W 002°31'2 4.5
2018-Sep-14 05:30N 49°25' W 002°30'4 8.5
2018-Sep-14 05:03N 49°23' W 002°34'0 7.4
2018-Sep-14 05:00N 49°23' W 002°35'5 7.7
2018-Sep-14 04:18N 49°22' W 002°43'4 8.7
2018-Sep-14 03:48N 49°22' W 002°50'310.4
2018-Sep-14 03:30N 49°25' W 002°52'510.3
2018-Sep-14 03:02N 49°29' W 002°55'110.6
2018-Sep-14 02:58N 49°30' W 002°55'610.6
2018-Sep-14 02:26N 49°35' W 002°57'1910.9
2018-Sep-14 00:43N 49°54' W 003°04'210.5
2018-Sep-14 00:30N 49°56' W 003°03'4 9.7
2018-Sep-14 00:03N 49°57' W 002°57'0 9.9
2018-Sep-14 00:00N 49°58' W 002°56'5 9.3
2018-Sep-13 23:30N 49°59' W 002°49'4 8.7
2018-Sep-13 23:03N 50°00' W 002°43'0 8.5
2018-Sep-13 23:00N 50°00' W 002°43'4461.5
2018-Sep-13 23:00N 50°00' W 002°36'2 3.5 320 / 201021.510.8 16.012.418.0
2018-Sep-13 22:30N 50°02' W 002°37'3 7.7
2018-Sep-13 22:04N 50°03' W 002°32'684.1
2018-Sep-13 22:00N 50°00' W 002°24'5341.4 310 / 221021.510.8 16.012.418.0
2018-Sep-13 21:59N 50°03' W 002°31'14 7.9
2018-Sep-13 20:15N 50°15' W 002°22'510.0
2018-Sep-13 19:44N 50°20' W 002°20'210.1
2018-Sep-13 19:30N 50°23' W 002°20'510.4
2018-Sep-13 19:00N 50°28' W 002°19'5 9.8
2018-Sep-13 18:30N 50°33' W 002°20'4 8.6
2018-Sep-13 18:03N 50°35' W 002°25'0 5.3
2018-Sep-13 18:01N 50°35' W 002°25'1 2.1
2018-Sep-13 17:25N 50°34' W 002°26'0 0.0
2018-Sep-13 16:58N 50°34' W 002°26'0 0.0
2018-Sep-13 16:25N 50°34' W 002°26'0 0.0
2018-Sep-13 15:58N 50°34' W 002°26'0 0.0
2018-Sep-13 15:28N 50°34' W 002°26'0 0.0
2018-Sep-13 14:55N 50°34' W 002°26'0 0.0
2018-Sep-13 14:28N 50°34' W 002°26'0 0.0
2018-Sep-13 13:58N 50°34' W 002°26'0 0.0
2018-Sep-13 13:28N 50°34' W 002°26'0 0.0
2018-Sep-13 12:58N 50°34' W 002°26'0 0.0
2018-Sep-13 12:28N 50°34' W 002°26'0 0.0
2018-Sep-13 11:58N 50°34' W 002°26'0 0.0
2018-Sep-13 11:28N 50°34' W 002°26'0 0.0
2018-Sep-13 09:25N 50°34' W 002°26'0 0.0
2018-Sep-13 08:58N 50°34' W 002°26'0 0.0
2018-Sep-13 08:28N 50°34' W 002°26'0 0.0
2018-Sep-13 07:52N 50°34' W 002°26'0 0.0
2018-Sep-13 07:28N 50°34' W 002°26'0 0.0
2018-Sep-13 06:55N 50°34' W 002°26'0 0.0
2018-Sep-13 06:25N 50°34' W 002°26'0 0.0
2018-Sep-13 05:58N 50°34' W 002°26'0 0.2
2018-Sep-13 05:30N 50°34' W 002°26'2 4.7
2018-Sep-13 05:03N 50°36' W 002°23'0 5.7
2018-Sep-13 05:00N 50°35' W 002°23'4 8.2
2018-Sep-13 04:30N 50°32' W 002°19'510.4
2018-Sep-13 04:03N 50°27' W 002°20'112.0
2018-Sep-13 03:58N 50°27' W 002°21'511.5
2018-Sep-13 03:30N 50°24' W 002°29'611.1
2018-Sep-13 03:00N 50°22' W 002°37'5 9.6
2018-Sep-13 02:30N 50°20' W 002°43'4 9.3
2018-Sep-13 02:03N 50°18' W 002°49'0 9.6
2018-Sep-13 02:00N 50°18' W 002°50'5 9.7
2018-Sep-13 01:30N 50°16' W 002°57'4 9.9
2018-Sep-13 01:03N 50°14' W 003°03'110.1
2018-Sep-13 01:00N 50°14' W 003°04'7418.8
2018-Sep-13 01:00N 50°12' W 002°54'1122.7 010 / 111023.110.8 14.014.017.0
2018-Sep-13 00:30N 50°12' W 003°11'510.2
2018-Sep-13 00:03N 50°10' W 003°18'110.4
2018-Sep-13 00:00N 50°10' W 003°19'510.3
2018-Sep-12 23:30N 50°08' W 003°26'510.6
2018-Sep-12 23:03N 50°06' W 003°33'110.7
2018-Sep-12 23:00N 50°05' W 003°33'6369.2
2018-Sep-12 23:00N 50°00' W 003°36'5 9.3 350 / 181023.510.8 14.513.617.0
2018-Sep-12 22:30N 50°03' W 003°41'511.3
2018-Sep-12 22:03N 50°01' W 003°48'111.6
2018-Sep-12 22:00N 50°01' W 003°49'611.8
2018-Sep-12 21:30N 49°60' W 003°58'711.5
2018-Sep-12 20:56N 49°58' W 004°08'511.6
2018-Sep-12 20:29N 49°56' W 004°16'511.7
2018-Sep-12 20:04N 49°55' W 004°23'111.8
2018-Sep-12 20:01N 49°55' W 004°24'170.9
2018-Sep-12 20:00N 49°54' W 004°24'612.3 360 / 131023.010.8 15.013.217.0
2018-Sep-12 19:30N 49°54' W 004°33'711.9
2018-Sep-12 18:56N 49°54' W 004°44'511.9
2018-Sep-12 18:30N 49°53' W 004°52'2911.6
2018-Sep-12 16:00N 49°48' W 005°36'98 9.4 020 / 181023.810.8 14.014.016.0
2018-Sep-12 05:32N 51°25' W 005°59'3412.1
2018-Sep-12 02:46N 51°59' W 005°52'413.8
2018-Sep-12 02:27N 52°03' W 005°51'513.6
2018-Sep-12 02:03N 52°08' W 005°50'113.4
2018-Sep-12 02:00N 52°09' W 005°50'713.3
2018-Sep-12 01:30N 52°15' W 005°48'612.5
2018-Sep-12 01:03N 52°21' W 005°47'112.1
2018-Sep-12 01:00N 52°22' W 005°46'611.7
2018-Sep-12 00:30N 52°27' W 005°45'511.1
2018-Sep-12 00:03N 52°32' W 005°43'110.5
2018-Sep-12 00:00N 52°33' W 005°43'9 9.9
2018-Sep-11 23:07N 52°42' W 005°41'1 9.2
2018-Sep-11 23:00N 52°43' W 005°41'3391.9
2018-Sep-11 23:00N 52°42' W 005°36'510.8 290 / 221019.110.8 13.512.614.0
2018-Sep-11 22:30N 52°47' W 005°39'4 8.0
2018-Sep-11 22:03N 52°50' W 005°38'0 7.7
2018-Sep-11 22:00N 52°51' W 005°38'3236.3
2018-Sep-11 22:00N 52°48' W 005°36'713.4 280 / 241018.910.8 14.012.214.0
2018-Sep-11 21:30N 52°55' W 005°37'3 7.4
2018-Sep-11 21:03N 52°58' W 005°37'0 7.3
2018-Sep-11 21:00N 52°58' W 005°37'4320.8
2018-Sep-11 21:00N 52°54' W 005°36'816.1 280 / 221018.110.8 14.512.714.0
2018-Sep-11 20:30N 53°02' W 005°36'4 7.5
2018-Sep-11 20:01N 53°05' W 005°38'151.0
2018-Sep-11 20:00N 53°06' W 005°36'1103.1 270 / 221017.610.8 15.011.314.0
2018-Sep-11 19:59N 53°06' W 005°38'4 8.7
2018-Sep-11 19:30N 53°09' W 005°41'4 9.6
2018-Sep-11 19:03N 53°13' W 005°44'0 9.9
2018-Sep-11 19:00N 53°14' W 005°45'510.0
2018-Sep-11 18:30N 53°18' W 005°49'510.5
2018-Sep-11 18:03N 53°22' W 005°53'210.5
2018-Sep-11 17:55N 53°22' W 005°56'10 0.3
2018-Sep-10 11:09N 53°21' W 006°13'0 0.0
2018-Sep-10 11:00N 53°21' W 006°13'2 0.5
2018-Sep-10 06:32N 53°21' W 006°10'310.3
2018-Sep-10 06:14N 53°20' W 006°04'2 7.2
2018-Sep-10 05:55N 53°21' W 006°01'3 7.1
2018-Sep-10 05:31N 53°24' W 005°58'13 8.3
2018-Sep-10 03:54N 53°35' W 005°47'4 9.2
2018-Sep-10 03:31N 53°38' W 005°44'7 9.0
2018-Sep-10 02:41N 53°45' W 005°37'2 9.0
2018-Sep-10 02:27N 53°46' W 005°35'4 8.8
2018-Sep-10 02:00N 53°50' W 005°32'10 8.7
2018-Sep-10 00:48N 53°59' W 005°23'3 8.4
2018-Sep-10 00:30N 54°01' W 005°21'4 8.2
2018-Sep-10 00:03N 54°04' W 005°18'0 8.2
2018-Sep-10 00:00N 54°05' W 005°18'4 8.3
2018-Sep-09 23:30N 54°08' W 005°14'4 8.0
2018-Sep-09 23:03N 54°11' W 005°11'0 8.4
2018-Sep-09 23:00N 54°12' W 005°11'4 8.4
2018-Sep-09 22:30N 54°15' W 005°07'4 8.4
2018-Sep-09 22:03N 54°19' W 005°04'0 8.4
2018-Sep-09 22:01N 54°19' W 005°03'2133.5
2018-Sep-09 22:00N 54°18' W 005°00'510.5 250 / 401012.110.8 14.511.715.0
2018-Sep-09 21:30N 54°23' W 005°02'4 8.4
2018-Sep-09 21:04N 54°27' W 005°02'0 8.5
2018-Sep-09 21:01N 54°27' W 005°02'3178.2
2018-Sep-09 21:00N 54°30' W 005°00'3 6.6 250 / 251012.410.8 14.511.715.0
2018-Sep-09 20:31N 54°31' W 005°05'4 9.4
2018-Sep-09 20:04N 54°35' W 005°09'0 9.6
2018-Sep-09 20:01N 54°35' W 005°10'187.2
2018-Sep-09 20:00N 54°36' W 005°12'3 7.2 250 / 221011.710.8 14.511.715.0
2018-Sep-09 19:30N 54°38' W 005°17'510.6
2018-Sep-09 19:04N 54°40' W 005°24'111.9
2018-Sep-09 19:01N 54°41' W 005°25'611.6
2018-Sep-09 18:31N 54°43' W 005°34'4 9.5
2018-Sep-09 18:04N 54°42' W 005°41'0 9.1
2018-Sep-09 18:01N 54°42' W 005°42'510.1
2018-Sep-09 17:30N 54°40' W 005°50'1 0.1
2018-Sep-09 05:58N 54°39' W 005°51'510.6
2018-Sep-09 05:30N 54°42' W 005°44'3 5.7
2018-Sep-09 05:03N 54°43' W 005°40'0 6.8
2018-Sep-09 05:00N 54°44' W 005°40'3 5.4
2018-Sep-09 04:30N 54°44' W 005°35'2 5.4
2018-Sep-09 04:03N 54°46' W 005°32'0 5.3
2018-Sep-09 04:00N 54°46' W 005°32'  

Dump ship's entire track history